Time;durP1;ratioP1;P1;durP2;ratioP2;P2;SDS_P1;SDS_P2;PMS_P1;PMS_P2;Temp;Humidity;BMP_temperature;BMP_pressure;BME280_temperature;BME280_humidity;BME280_pressure;Samples;Min_cycle;Max_cycle;Signal;HPM_P1;HPM_P2
2021/08/19 01:47:20;;;;;;;1999.90;999.90;;;17.80;99.90;;;;;;5039259;28;20493;-87
2021/08/19 01:49:47;;;;;;;1999.90;999.90;;;17.70;99.90;;;;;;5049882;28;20535;-87
2021/08/19 01:52:13;;;;;;;1999.90;999.90;;;17.80;99.90;;;;;;5052133;28;21025;-87
2021/08/19 01:54:40;;;;;;;1999.90;999.90;;;17.80;99.90;;;;;;5051667;28;20453;-86
2021/08/19 01:57:07;;;;;;;1999.90;999.90;;;17.80;99.90;;;;;;5051714;28;20465;-88
2021/08/19 01:59:34;;;;;;;1999.90;999.90;;;17.80;99.90;;;;;;5036183;28;20471;-87
2021/08/19 02:02:01;;;;;;;1999.90;999.90;;;17.80;99.90;;;;;;5031899;28;20451;-89
2021/08/19 02:04:29;;;;;;;1999.90;999.90;;;17.80;99.90;;;;;;5031914;28;20461;-89
2021/08/19 02:06:56;;;;;;;1999.90;999.90;;;17.80;99.90;;;;;;5031577;28;20517;-89
2021/08/19 02:09:23;;;;;;;1999.90;999.90;;;17.70;99.90;;;;;;5045069;28;20473;-86
2021/08/19 02:11:50;;;;;;;1999.90;999.90;;;17.90;99.90;;;;;;5051305;28;20480;-88
2021/08/19 02:14:17;;;;;;;1999.90;999.90;;;17.90;99.90;;;;;;5051820;28;20463;-87
2021/08/19 02:16:44;;;;;;;1999.90;999.90;;;17.80;99.90;;;;;;5051285;28;20452;-88
2021/08/19 02:19:12;;;;;;;1999.90;999.90;;;17.90;99.90;;;;;;5039030;28;20488;-86
2021/08/19 02:21:40;;;;;;;1999.90;999.90;;;17.90;99.90;;;;;;5031615;28;20827;-89
2021/08/19 02:24:07;;;;;;;1999.90;999.90;;;17.90;99.90;;;;;;5031705;28;20484;-86
2021/08/19 02:26:34;;;;;;;1999.90;999.90;;;17.80;99.90;;;;;;5031538;28;20458;-86
2021/08/19 02:29:00;;;;;;;1999.90;999.90;;;17.80;99.90;;;;;;5041858;28;21023;-86
2021/08/19 02:31:27;;;;;;;1999.90;999.90;;;17.90;99.90;;;;;;5051419;28;20993;-88
2021/08/19 02:33:54;;;;;;;1999.90;999.90;;;17.90;99.90;;;;;;5051953;28;20449;-86
2021/08/19 02:36:21;;;;;;;1999.90;999.90;;;17.90;99.90;;;;;;5051234;28;20538;-89
2021/08/19 02:38:49;;;;;;;1999.90;999.90;;;17.90;99.90;;;;;;5042490;28;20475;-86
2021/08/19 02:41:16;;;;;;;1999.90;999.90;;;17.90;99.90;;;;;;5037204;28;20453;-89
2021/08/19 02:43:43;;;;;;;1999.90;999.90;;;17.90;99.90;;;;;;5051108;28;20449;-86
2021/08/19 02:46:11;;;;;;;1999.90;999.90;;;17.90;99.90;;;;;;5047459;28;20453;-88
2021/08/19 02:48:38;;;;;;;1999.90;999.90;;;17.80;99.90;;;;;;5042803;28;20461;-88
2021/08/19 02:51:05;;;;;;;1999.90;999.90;;;17.80;99.90;;;;;;5051254;28;20462;-86
2021/08/19 02:53:32;;;;;;;1999.90;999.90;;;17.70;99.90;;;;;;5044514;28;20487;-87
2021/08/19 02:56:02;;;;;;;1999.90;999.90;;;17.70;99.90;;;;;;5032187;28;20453;-87
2021/08/19 02:58:29;;;;;;;1999.90;999.90;;;17.70;99.90;;;;;;5034825;28;20667;-87
2021/08/19 03:00:55;;;;;;;1999.90;999.90;;;17.70;99.90;;;;;;5034806;28;20976;-87
2021/08/19 03:03:22;;;;;;;1999.90;999.90;;;17.80;99.90;;;;;;5040091;28;20454;-86
2021/08/19 03:05:49;;;;;;;1999.90;999.90;;;17.80;99.90;;;;;;5055160;28;20463;-86
2021/08/19 03:08:16;;;;;;;1999.90;999.90;;;17.80;99.90;;;;;;5055175;28;20474;-85
2021/08/19 03:10:43;;;;;;;1999.90;999.90;;;17.70;99.90;;;;;;5055494;28;20456;-85
2021/08/19 03:13:11;;;;;;;1999.90;999.90;;;17.60;99.90;;;;;;5053043;28;20488;-85
2021/08/19 03:15:37;;;;;;;1999.90;999.90;;;17.70;99.90;;;;;;5042986;28;21158;-86
2021/08/19 03:18:04;;;;;;;1999.90;999.90;;;17.70;99.90;;;;;;5038174;28;20486;-85
2021/08/19 03:20:31;;;;;;;1999.90;999.90;;;17.70;99.90;;;;;;5036396;28;20530;-87
2021/08/19 03:22:58;;;;;;;1999.90;999.90;;;17.80;99.90;;;;;;5036278;28;20528;-87
2021/08/19 03:25:26;;;;;;;1999.90;999.90;;;17.70;99.90;;;;;;5050603;28;20865;-83
2021/08/19 03:27:57;;;;;;;1999.90;999.90;;;17.70;99.90;;;;;;5035559;28;20513;-81
2021/08/19 03:30:25;;;;;;;1999.90;999.90;;;17.60;99.90;;;;;;5036288;28;20915;-83
2021/08/19 03:32:52;;;;;;;1999.90;999.90;;;17.70;99.90;;;;;;5035268;28;20496;-84
2021/08/19 03:35:18;;;;;;;1999.90;999.90;;;17.60;99.90;;;;;;5035208;28;20453;-84
2021/08/19 03:37:45;;;;;;;1999.90;999.90;;;17.60;99.90;;;;;;5034161;28;20475;-84
2021/08/19 03:40:14;;;;;;;1999.90;999.90;;;17.70;99.90;;;;;;5017708;28;20449;-84
2021/08/19 03:42:41;;;;;;;1999.90;999.90;;;17.70;99.90;;;;;;5034817;28;20451;-83
2021/08/19 03:45:10;;;;;;;1999.90;999.90;;;17.70;99.90;;;;;;5035954;28;20460;-83
2021/08/19 03:47:38;;;;;;;1999.90;999.90;;;17.60;99.90;;;;;;5046495;28;20974;-82
2021/08/19 03:50:07;;;;;;;1999.90;999.90;;;17.60;99.90;;;;;;5055869;28;20474;-82
2021/08/19 03:52:34;;;;;;;1999.90;999.90;;;17.50;99.90;;;;;;5055881;28;20491;-83
2021/08/19 03:55:01;;;;;;;1999.90;999.90;;;17.50;99.90;;;;;;5054431;28;20554;-83
2021/08/19 03:57:28;;;;;;;1999.90;999.90;;;17.50;99.90;;;;;;5054817;28;20905;-83
2021/08/19 03:59:54;;;;;;;1999.90;999.90;;;17.50;99.90;;;;;;5054781;28;20474;-83
2021/08/19 04:02:21;;;;;;;1999.90;999.90;;;17.50;99.90;;;;;;5055652;28;20451;-83
2021/08/19 04:04:49;;;;;;;1999.90;999.90;;;17.60;99.90;;;;;;5038547;28;20849;-83
2021/08/19 04:07:16;;;;;;;1999.90;999.90;;;17.60;99.90;;;;;;5032881;28;20459;-84
2021/08/19 04:09:43;;;;;;;1999.90;999.90;;;17.60;99.90;;;;;;5035183;28;20478;-82
2021/08/19 04:12:10;;;;;;;1999.90;999.90;;;17.60;99.90;;;;;;5036588;28;20484;-84
2021/08/19 04:14:38;;;;;;;1999.90;999.90;;;17.60;99.90;;;;;;5049567;28;20539;-83
2021/08/19 04:17:05;;;;;;;1999.90;999.90;;;17.50;99.90;;;;;;5055053;28;20906;-82
2021/08/19 04:19:32;;;;;;;1999.90;999.90;;;17.50;99.90;;;;;;5055939;28;20492;-83
2021/08/19 04:22:00;;;;;;;1999.90;999.90;;;17.50;99.90;;;;;;5056137;28;20631;-83
2021/08/19 04:24:27;;;;;;;1999.90;999.90;;;17.40;99.90;;;;;;5044263;28;20494;-84
2021/08/19 04:26:53;;;;;;;1999.90;999.90;;;17.50;99.90;;;;;;5036501;28;20448;-85
2021/08/19 04:29:21;;;;;;;1999.90;999.90;;;17.50;99.90;;;;;;5038551;28;20576;-83
2021/08/19 04:31:48;;;;;;;1999.90;999.90;;;17.40;99.90;;;;;;5049297;28;20452;-84
2021/08/19 04:34:15;;;;;;;1999.90;999.90;;;17.40;99.90;;;;;;5047811;28;20452;-83
2021/08/19 04:36:41;;;;;;;1999.90;999.90;;;17.40;99.90;;;;;;5039907;28;20489;-83
2021/08/19 04:39:12;;;;;;;1999.90;999.90;;;17.40;99.90;;;;;;5033922;28;20550;-83
2021/08/19 04:41:39;;;;;;;1999.90;999.90;;;17.50;99.90;;;;;;5044526;28;20537;-82
2021/08/19 04:44:06;;;;;;;1999.90;999.90;;;17.40;99.90;;;;;;5042053;28;20461;-84
2021/08/19 04:46:33;;;;;;;1999.90;999.90;;;17.50;99.90;;;;;;5046938;28;20460;-84
2021/08/19 04:49:05;;;;;;;1999.90;999.90;;;17.50;99.90;;;;;;5049966;28;21003;-85
2021/08/19 04:51:32;;;;;;;1999.90;999.90;;;17.50;99.90;;;;;;5049155;28;20953;-83
2021/08/19 04:53:59;;;;;;;1999.90;999.90;;;17.50;99.90;;;;;;5053273;28;20491;-83
2021/08/19 04:56:30;;;;;;;1999.90;999.90;;;17.50;99.90;;;;;;5053255;28;20441;-82
2021/08/19 04:58:58;;;;;;;1999.90;999.90;;;17.60;99.90;;;;;;5053444;28;20611;-83
2021/08/19 05:04:34;;;;;;;1999.90;999.90;;;17.60;99.90;;;;;;5050488;28;20441;-83
2021/08/19 05:07:01;;;;;;;1999.90;999.90;;;17.60;99.90;;;;;;5053422;28;20807;-82
2021/08/19 05:14:34;;;;;;;1999.90;999.90;;;17.40;99.90;;;;;;5072790;28;20463;-81
2021/08/19 05:17:00;;;;;;;1999.90;999.90;;;17.40;99.90;;;;;;5074832;28;20443;-84
2021/08/19 05:19:28;;;;;;;1999.90;999.90;;;17.50;99.90;;;;;;5074713;28;20478;-81
2021/08/19 05:22:09;;;;;;;1999.90;999.90;;;17.50;99.90;;;;;;5073451;28;20878;-81
2021/08/19 05:24:40;;;;;;;1999.90;999.90;;;17.50;99.90;;;;;;5073700;28;20446;-82
2021/08/19 05:27:07;;;;;;;1999.90;999.90;;;17.50;99.90;;;;;;5060028;28;20443;-81
2021/08/19 05:29:39;;;;;;;1999.90;999.90;;;17.50;99.90;;;;;;5074007;28;20546;-82
2021/08/19 05:32:06;;;;;;;1999.90;999.90;;;17.50;99.90;;;;;;5074032;28;20480;-81
2021/08/19 05:34:35;;;;;;;1999.90;999.90;;;17.50;99.90;;;;;;5074625;28;20458;-82
2021/08/19 05:37:03;;;;;;;1999.90;999.90;;;17.50;99.90;;;;;;5074641;28;20448;-81
2021/08/19 05:39:30;;;;;;;1999.90;999.90;;;17.50;99.90;;;;;;5068833;28;20969;-81
2021/08/19 05:41:57;;;;;;;1999.90;999.90;;;17.40;99.90;;;;;;5074246;28;21777;-82
2021/08/19 05:44:25;;;;;;;1999.90;999.90;;;17.50;99.90;;;;;;5069638;28;20522;-84
2021/08/19 05:46:53;;;;;;;1999.90;999.90;;;17.50;99.90;;;;;;5070970;28;20482;-82
2021/08/19 05:49:22;;;;;;;1999.90;999.90;;;17.40;99.90;;;;;;5072751;28;20551;-82
2021/08/19 05:51:50;;;;;;;1999.90;999.90;;;17.40;99.90;;;;;;5071797;28;20446;-83
2021/08/19 05:54:17;;;;;;;1999.90;999.90;;;17.40;99.90;;;;;;5064576;28;20563;-82
2021/08/19 05:56:44;;;;;;;1999.90;999.90;;;17.40;99.90;;;;;;5072937;28;20550;-82
2021/08/19 05:59:11;;;;;;;1999.90;999.90;;;17.40;99.90;;;;;;5072384;28;20477;-82
2021/08/19 06:01:40;;;;;;;1999.90;999.90;;;17.40;99.90;;;;;;5072657;28;20470;-82
2021/08/19 06:04:08;;;;;;;1999.90;999.90;;;17.40;99.90;;;;;;5052582;28;20453;-82
2021/08/19 06:06:35;;;;;;;1999.90;999.90;;;17.40;99.90;;;;;;5071439;28;20461;-82
2021/08/19 06:09:02;;;;;;;1999.90;999.90;;;17.50;99.90;;;;;;5065804;28;20543;-83
2021/08/19 06:11:28;;;;;;;1999.90;999.90;;;17.50;99.90;;;;;;5069730;28;20553;-82
2021/08/19 06:13:55;;;;;;;1999.90;999.90;;;17.50;99.90;;;;;;5064433;28;21119;-82
2021/08/19 06:16:29;;;;;;;1999.90;999.90;;;17.60;99.90;;;;;;5066577;28;20449;-82
2021/08/19 06:18:57;;;;;;;1999.90;999.90;;;17.50;99.90;;;;;;5070347;28;20468;-85
2021/08/19 06:21:25;;;;;;;1999.90;999.90;;;17.50;99.90;;;;;;5068876;28;20455;-84
2021/08/19 06:23:52;;;;;;;1999.90;999.90;;;17.50;99.90;;;;;;5077376;28;20536;-85
2021/08/19 06:26:19;;;;;;;1999.90;999.90;;;17.50;99.90;;;;;;5065876;28;20549;-82
2021/08/19 06:28:46;;;;;;;1999.90;999.90;;;17.50;99.90;;;;;;5066236;28;20475;-84
2021/08/19 06:31:13;;;;;;;1999.90;999.90;;;17.50;99.90;;;;;;5059229;28;20481;-84
2021/08/19 06:33:40;;;;;;;1999.90;999.90;;;17.50;99.90;;;;;;5071866;28;20488;-85
2021/08/19 06:36:12;;;;;;;1999.90;999.90;;;17.60;99.90;;;;;;5063875;28;20461;-84
2021/08/19 06:38:40;;;;;;;1999.90;999.90;;;17.60;99.90;;;;;;5066568;28;20477;-84
2021/08/19 06:41:07;;;;;;;1999.90;999.90;;;17.60;99.90;;;;;;5063404;28;20447;-85
2021/08/19 06:43:34;;;;;;;1999.90;999.90;;;17.60;99.90;;;;;;5055502;28;20989;-84
2021/08/19 06:46:00;;;;;;;1999.90;999.90;;;17.60;99.90;;;;;;5055917;28;20457;-84
2021/08/19 06:48:27;;;;;;;1999.90;999.90;;;17.60;99.90;;;;;;5055215;28;20469;-83
2021/08/19 06:50:54;;;;;;;1999.90;999.90;;;17.50;99.90;;;;;;5055093;28;20462;-83
2021/08/19 06:53:21;;;;;;;1999.90;999.90;;;17.50;99.90;;;;;;5055993;28;20490;-83
2021/08/19 06:55:49;;;;;;;1999.90;999.90;;;17.50;99.90;;;;;;5056863;28;20828;-83
2021/08/19 06:58:17;;;;;;;1999.90;999.90;;;17.50;99.90;;;;;;5055988;28;20993;-84
2021/08/19 07:00:43;;;;;;;1999.90;999.90;;;17.50;99.90;;;;;;5066801;28;20456;-87
2021/08/19 07:03:13;;;;;;;1999.90;999.90;;;17.60;99.90;;;;;;5075943;28;20877;-82
2021/08/19 07:05:40;;;;;;;1999.90;999.90;;;17.50;99.90;;;;;;5065631;28;20950;-82
2021/08/19 07:08:07;;;;;;;1999.90;999.90;;;17.60;99.90;;;;;;5070268;28;20475;-83
2021/08/19 07:10:34;;;;;;;1999.90;999.90;;;17.70;99.90;;;;;;5062498;28;20456;-84
2021/08/19 07:13:02;;;;;;;1999.90;999.90;;;17.60;99.90;;;;;;5071411;28;20487;-85
2021/08/19 07:15:30;;;;;;;1999.90;999.90;;;17.70;99.90;;;;;;5064066;28;20449;-85
2021/08/19 07:17:57;;;;;;;1999.90;999.90;;;17.60;99.90;;;;;;5059100;28;20535;-84
2021/08/19 07:20:24;;;;;;;1999.90;999.90;;;17.60;99.90;;;;;;5071008;28;21063;-83
2021/08/19 07:22:51;;;;;;;1999.90;999.90;;;17.50;99.90;;;;;;5068399;28;20534;-83
2021/08/19 07:25:21;;;;;;;1999.90;999.90;;;17.60;99.90;;;;;;5067091;28;20479;-85
2021/08/19 07:27:48;;;;;;;1999.90;999.90;;;17.70;99.90;;;;;;5076880;28;20442;-84
2021/08/19 07:30:17;;;;;;;1999.90;999.90;;;17.60;99.90;;;;;;5078368;28;20448;-81
2021/08/19 07:32:44;;;;;;;1999.90;999.90;;;17.60;99.90;;;;;;5074629;28;20450;-83
2021/08/19 07:35:12;;;;;;;1999.90;999.90;;;17.60;99.90;;;;;;5082777;28;20516;-82
2021/08/19 07:37:45;;;;;;;1999.90;999.90;;;17.60;99.90;;;;;;5077248;28;20447;-84
2021/08/19 07:40:13;;;;;;;1999.90;999.90;;;17.60;99.90;;;;;;5066058;28;20453;-84
2021/08/19 07:42:40;;;;;;;1999.90;999.90;;;17.60;99.90;;;;;;5069571;28;20469;-81
2021/08/19 07:45:08;;;;;;;1999.90;999.90;;;17.60;99.90;;;;;;5060571;28;20449;-83
2021/08/19 07:47:36;;;;;;;1999.90;999.90;;;17.70;99.90;;;;;;5057326;28;20451;-81
2021/08/19 07:50:04;;;;;;;1999.90;999.90;;;17.70;99.90;;;;;;5073112;28;20475;-81
2021/08/19 07:52:31;;;;;;;1999.90;999.90;;;17.70;99.90;;;;;;5076951;28;20522;-82
2021/08/19 07:54:58;;;;;;;1999.90;999.90;;;17.60;99.90;;;;;;5077172;28;20486;-81
2021/08/19 07:57:25;;;;;;;1999.90;999.90;;;17.60;99.90;;;;;;5071482;28;20946;-81
2021/08/19 07:59:52;;;;;;;1999.90;999.90;;;17.60;99.90;;;;;;5078414;28;20982;-82
2021/08/19 08:02:18;;;;;;;1999.90;999.90;;;17.70;99.90;;;;;;5071760;28;20516;-82
2021/08/19 08:04:46;;;;;;;1999.90;999.90;;;17.80;99.90;;;;;;5070362;28;20447;-82
2021/08/19 08:07:13;;;;;;;1999.90;999.90;;;17.70;99.90;;;;;;5079642;28;20550;-81
2021/08/19 08:09:40;;;;;;;1999.90;999.90;;;17.80;99.90;;;;;;5078429;28;20473;-81
2021/08/19 08:12:07;;;;;;;1999.90;999.90;;;17.80;99.90;;;;;;5078148;28;20548;-83
2021/08/19 08:14:34;;;;;;;1999.90;999.90;;;17.80;99.90;;;;;;5072334;28;20492;-81
2021/08/19 08:17:01;;;;;;;1999.90;999.90;;;17.80;99.90;;;;;;5079442;28;20450;-82
2021/08/19 08:19:28;;;;;;;1999.90;999.90;;;17.80;99.90;;;;;;5078511;28;21002;-81
2021/08/19 08:21:56;;;;;;;1999.90;999.90;;;17.90;99.90;;;;;;5067415;28;20453;-81
2021/08/19 08:24:23;;;;;;;1999.90;999.90;;;18.00;99.90;;;;;;5057030;28;21219;-80
2021/08/19 08:26:50;;;;;;;1999.90;999.90;;;18.10;99.90;;;;;;5056482;28;20454;-81
2021/08/19 08:29:19;;;;;;;1999.90;999.90;;;18.10;99.90;;;;;;5063985;28;20479;-80
2021/08/19 08:31:46;;;;;;;1999.90;999.90;;;18.00;99.90;;;;;;5068898;28;20453;-82
2021/08/19 08:34:13;;;;;;;1999.90;999.90;;;18.10;99.90;;;;;;5069718;28;20491;-84
2021/08/19 08:36:40;;;;;;;1999.90;999.90;;;18.10;99.90;;;;;;5067179;28;20450;-84
2021/08/19 08:39:10;;;;;;;1999.90;999.90;;;18.20;99.90;;;;;;5068550;28;20595;-83
2021/08/19 08:41:39;;;;;;;1999.90;999.90;;;18.20;99.90;;;;;;5067088;28;20455;-81
2021/08/19 08:44:06;;;;;;;1999.90;999.90;;;18.30;99.90;;;;;;5073506;28;20534;-81
2021/08/19 08:46:35;;;;;;;1999.90;999.90;;;18.30;99.90;;;;;;5068388;28;20829;-82
2021/08/19 08:49:02;;;;;;;1999.90;999.90;;;18.20;99.90;;;;;;5068141;28;20486;-83
2021/08/19 08:51:30;;;;;;;1999.90;999.90;;;18.20;99.90;;;;;;5070065;28;20482;-83
2021/08/19 08:53:57;;;;;;;1999.90;999.90;;;18.10;99.90;;;;;;5064350;28;20557;-83
2021/08/19 08:56:25;;;;;;;1999.90;999.90;;;18.00;99.90;;;;;;5076442;28;21034;-83
2021/08/19 08:58:52;;;;;;;1999.90;999.90;;;18.00;99.90;;;;;;5070768;28;21058;-83
2021/08/19 09:01:19;;;;;;;1999.90;999.90;;;18.00;99.90;;;;;;5070549;28;20456;-82
2021/08/19 09:03:46;;;;;;;1999.90;999.90;;;17.90;99.90;;;;;;5077444;28;20507;-83
2021/08/19 09:06:13;;;;;;;1999.90;999.90;;;17.80;99.90;;;;;;5071421;28;20550;-82
2021/08/19 09:08:50;;;;;;;1999.90;999.90;;;17.90;99.90;;;;;;5072321;28;20464;-83
2021/08/19 09:11:17;;;;;;;1999.90;999.90;;;17.90;99.90;;;;;;5071606;28;21169;-82
2021/08/19 09:13:45;;;;;;;1999.90;999.90;;;17.90;99.90;;;;;;5059405;28;20516;-81
2021/08/19 09:16:16;;;;;;;1999.90;999.90;;;17.90;99.90;;;;;;5058888;28;20453;-82
2021/08/19 09:18:43;;;;;;;1999.90;999.90;;;17.80;99.90;;;;;;5065102;28;20462;-82
2021/08/19 09:21:20;;;;;;;1999.90;999.90;;;17.70;99.90;;;;;;5071368;28;20831;-81
2021/08/19 09:23:46;;;;;;;1999.90;999.90;;;17.80;99.90;;;;;;5067667;28;20455;-83
2021/08/19 09:26:26;;;;;;;1999.90;999.90;;;17.80;99.90;;;;;;5071385;28;20447;-83
2021/08/19 09:29:21;;;;;;;1999.90;999.90;;;17.80;99.90;;;;;;5070934;28;20493;-82
2021/08/19 09:31:49;;;;;;;1999.90;999.90;;;17.70;99.90;;;;;;5074704;28;20450;-82
2021/08/19 09:34:17;;;;;;;1999.90;999.90;;;17.70;99.90;;;;;;5074509;28;20493;-83
2021/08/19 09:36:44;;;;;;;1999.90;999.90;;;17.70;99.90;;;;;;5077512;28;20439;-82
2021/08/19 09:39:11;;;;;;;1999.90;999.90;;;17.90;99.90;;;;;;5073437;28;20479;-82
2021/08/19 09:41:52;;;;;;;1999.90;999.90;;;17.90;99.90;;;;;;5070777;28;20545;-83
2021/08/19 09:44:33;;;;;;;1999.90;999.90;;;17.90;99.90;;;;;;5074443;28;20463;-83
2021/08/19 09:47:00;;;;;;;1999.90;999.90;;;18.00;99.90;;;;;;5073473;28;20435;-81
2021/08/19 09:49:29;;;;;;;1999.90;999.90;;;17.90;99.90;;;;;;5072726;28;20471;-84
2021/08/19 09:52:01;;;;;;;1999.90;999.90;;;18.10;99.90;;;;;;5066884;28;20478;-81
2021/08/19 09:54:29;;;;;;;1999.90;999.90;;;18.10;99.90;;;;;;5065976;28;20615;-82
2021/08/19 09:56:56;;;;;;;1999.90;999.90;;;18.10;99.90;;;;;;5071268;28;20470;-82
2021/08/19 09:59:24;;;;;;;1999.90;999.90;;;18.10;99.90;;;;;;5069830;28;21085;-82
2021/08/19 10:01:54;;;;;;;1999.90;999.90;;;18.10;99.90;;;;;;5069112;28;20461;-81
2021/08/19 10:04:23;;;;;;;1999.90;999.90;;;18.20;99.90;;;;;;5062941;28;20447;-82
2021/08/19 10:06:50;;;;;;;1999.90;999.90;;;18.20;99.90;;;;;;5054758;28;20965;-83
2021/08/19 10:09:17;;;;;;;1999.90;999.90;;;18.20;99.90;;;;;;5065485;28;20470;-82
2021/08/19 10:11:45;;;;;;;1999.90;999.90;;;18.30;99.90;;;;;;5065402;28;20938;-82
2021/08/19 10:14:14;;;;;;;1999.90;999.90;;;18.20;99.90;;;;;;5064072;28;21043;-82
2021/08/19 10:16:41;;;;;;;1999.90;999.90;;;18.30;99.90;;;;;;5077688;28;20888;-82
2021/08/19 10:19:12;;;;;;;1999.90;999.90;;;18.20;99.90;;;;;;5094609;22;20463;-82
2021/08/19 10:21:43;;;;;;;1999.90;999.90;;;18.10;99.90;;;;;;5087574;28;20508;-83
2021/08/19 10:24:11;;;;;;;1999.90;999.90;;;18.10;99.90;;;;;;5074759;28;20459;-82
2021/08/19 10:26:38;;;;;;;1999.90;999.90;;;18.20;99.90;;;;;;5081295;28;21020;-83
2021/08/19 10:29:05;;;;;;;1999.90;999.90;;;18.20;99.90;;;;;;5075154;28;20499;-82
2021/08/19 10:31:49;;;;;;;1999.90;999.90;;;18.30;99.90;;;;;;5075947;28;20520;-83
2021/08/19 10:34:20;;;;;;;1999.90;999.90;;;18.40;99.90;;;;;;5080865;28;20509;-83
2021/08/19 10:36:54;;;;;;;1999.90;999.90;;;18.40;99.90;;;;;;5078517;28;20511;-83
2021/08/19 10:39:38;;;;;;;1999.90;999.90;;;18.40;99.90;;;;;;5066526;28;20509;-81
2021/08/19 10:42:08;;;;;;;1999.90;999.90;;;18.60;99.90;;;;;;5065174;28;20807;-82
2021/08/19 10:44:37;;;;;;;1999.90;999.90;;;18.60;99.90;;;;;;5080921;28;20497;-82
2021/08/19 10:47:06;;;;;;;1999.90;999.90;;;18.70;99.90;;;;;;5078130;28;20444;-83
2021/08/19 10:49:43;;;;;;;1999.90;999.90;;;18.70;99.90;;;;;;5083256;28;20504;-83
2021/08/19 10:52:29;;;;;;;1999.90;999.90;;;18.60;99.90;;;;;;5085295;28;20461;-85
2021/08/19 10:55:20;;;;;;;1999.90;999.90;;;18.60;99.90;;;;;;5079174;28;20540;-83
2021/08/19 10:57:52;;;;;;;1999.90;999.90;;;18.40;99.90;;;;;;5049790;28;20534;-83
2021/08/19 11:00:36;;;;;;;1999.90;999.90;;;18.50;99.90;;;;;;5069624;28;20504;-82
2021/08/19 11:03:03;;;;;;;1999.90;999.90;;;18.60;99.90;;;;;;5077364;28;20451;-83
2021/08/19 11:05:57;;;;;;;1999.90;999.90;;;18.70;99.90;;;;;;5075952;28;20619;-83
2021/08/19 11:08:40;;;;;;;1999.90;999.90;;;18.80;99.90;;;;;;5082916;28;20466;-82
2021/08/19 11:11:08;;;;;;;1999.90;999.90;;;18.80;99.90;;;;;;5091177;28;20462;-84
2021/08/19 11:13:35;;;;;;;1999.90;999.90;;;18.80;99.90;;;;;;5090269;28;20477;-81
2021/08/19 11:16:07;;;;;;;1999.90;999.90;;;18.80;99.90;;;;;;5087777;28;20494;-82
2021/08/19 11:18:35;;;;;;;1999.90;999.90;;;18.90;99.90;;;;;;5088077;28;20455;-83
2021/08/19 11:21:04;;;;;;;1999.90;999.90;;;18.80;99.90;;;;;;5088391;28;20481;-83
2021/08/19 11:23:33;;;;;;;1999.90;999.90;;;18.90;99.90;;;;;;5084055;28;20478;-82
2021/08/19 11:26:04;;;;;;;1999.90;999.90;;;19.00;99.90;;;;;;5069180;28;20447;-83
2021/08/19 11:28:37;;;;;;;1999.90;999.90;;;19.00;99.90;;;;;;5073413;28;20512;-81
2021/08/19 11:31:11;;;;;;;1999.90;999.90;;;18.90;99.90;;;;;;5077774;28;20485;-82
2021/08/19 11:33:39;;;;;;;1999.90;999.90;;;18.90;99.90;;;;;;5075818;28;20454;-82
2021/08/19 11:36:08;;;;;;;1999.90;999.90;;;18.90;99.90;;;;;;5081298;28;20531;-81
2021/08/19 11:38:36;;;;;;;1999.90;999.90;;;19.10;99.90;;;;;;5081129;28;20566;-81
2021/08/19 11:41:22;;;;;;;1999.90;999.90;;;19.30;99.90;;;;;;5067917;28;20535;-81
2021/08/19 11:43:49;;;;;;;1999.90;999.90;;;19.30;99.90;;;;;;5070211;28;20473;-82
2021/08/19 11:46:20;;;;;;;1999.90;999.90;;;19.50;99.90;;;;;;5069281;28;20440;-81
2021/08/19 11:48:50;;;;;;;1999.90;999.90;;;19.80;99.90;;;;;;5081148;28;20443;-81
2021/08/19 11:51:30;;;;;;;1999.90;999.90;;;19.90;99.90;;;;;;5080836;28;20462;-81
2021/08/19 11:53:59;;;;;;;1999.90;999.90;;;20.00;99.90;;;;;;5078846;28;20550;-82
2021/08/19 11:56:27;;;;;;;1999.90;999.90;;;20.00;99.90;;;;;;5072471;28;20514;-82
2021/08/19 11:59:01;;;;;;;1999.90;999.90;;;20.10;99.90;;;;;;5062711;28;20451;-82
2021/08/19 12:01:28;;;;;;;1999.90;999.90;;;19.90;99.90;;;;;;5065266;28;21021;-82
2021/08/19 12:03:55;;;;;;;1999.90;999.90;;;19.80;99.90;;;;;;5069635;28;20462;-81
2021/08/19 12:06:24;;;;;;;1999.90;999.90;;;19.70;99.90;;;;;;5067388;28;20444;-82
2021/08/19 12:08:53;;;;;;;1999.90;999.90;;;19.80;99.90;;;;;;5067296;28;20482;-82
2021/08/19 12:11:22;;;;;;;1999.90;999.90;;;19.90;99.90;;;;;;5067187;28;20543;-81
2021/08/19 12:13:50;;;;;;;1999.90;999.90;;;20.00;99.90;;;;;;5063994;28;20814;-82
2021/08/19 12:16:20;;;;;;;1999.90;999.90;;;19.90;99.90;;;;;;5075714;28;20486;-80
2021/08/19 12:19:06;;;;;;;1999.90;999.90;;;19.90;99.90;;;;;;5080198;28;20542;-81
2021/08/19 12:21:33;;;;;;;1999.90;999.90;;;19.70;99.90;;;;;;5074896;28;20450;-81
2021/08/19 12:24:18;;;;;;;1999.90;999.90;;;19.70;99.90;;;;;;5078555;28;20454;-81
2021/08/19 12:27:00;;;;;;;1999.90;999.90;;;19.90;99.90;;;;;;5057751;28;20482;-82
2021/08/19 12:29:28;;;;;;;1999.90;999.90;;;20.10;99.90;;;;;;5056703;28;20803;-81
2021/08/19 12:31:58;;;;;;;1999.90;999.90;;;20.30;99.90;;;;;;5057461;28;20974;-81
2021/08/19 12:34:25;;;;;;;1999.90;999.90;;;20.40;99.90;;;;;;5058315;28;20463;-82
2021/08/19 12:36:52;;;;;;;1999.90;999.90;;;20.40;99.90;;;;;;5061206;28;20452;-80
2021/08/19 12:39:23;;;;;;;1999.90;999.90;;;20.40;99.90;;;;;;5066907;28;20486;-81
2021/08/19 12:42:04;;;;;;;1999.90;999.90;;;20.30;99.90;;;;;;5081305;28;20456;-82
2021/08/19 12:44:31;;;;;;;1999.90;999.90;;;20.10;99.90;;;;;;5077973;28;20455;-82
2021/08/19 12:46:58;;;;;;;1999.90;999.90;;;19.90;99.90;;;;;;5074117;28;20463;-82
2021/08/19 12:49:29;;;;;;;1999.90;999.90;;;19.70;99.90;;;;;;5076497;28;20480;-82
2021/08/19 12:52:17;;;;;;;1999.90;999.90;;;19.70;99.90;;;;;;5078779;28;20483;-83
2021/08/19 12:54:57;;;;;;;1999.90;999.90;;;19.60;99.90;;;;;;5077426;28;20513;-83
2021/08/19 12:57:39;;;;;;;1999.90;999.90;;;19.60;99.90;;;;;;5077497;28;20446;-83
2021/08/19 13:00:13;;;;;;;1999.90;999.90;;;19.70;99.90;;;;;;5069320;28;20470;-82
2021/08/19 13:02:40;;;;;;;1999.90;999.90;;;19.60;99.90;;;;;;5078253;28;20490;-82
2021/08/19 13:05:09;;;;;;;1999.90;999.90;;;19.60;99.90;;;;;;5074168;28;20937;-82
2021/08/19 13:07:36;;;;;;;1999.90;999.90;;;19.70;99.90;;;;;;5081916;28;20507;-82
2021/08/19 13:10:05;;;;;;;1999.90;999.90;;;19.70;99.90;;;;;;5076216;28;20491;-82
2021/08/19 13:12:32;;;;;;;1999.90;999.90;;;19.90;99.90;;;;;;5079635;28;20959;-81
2021/08/19 13:15:00;;;;;;;1999.90;999.90;;;20.00;99.90;;;;;;5081823;28;20487;-83
2021/08/19 13:17:27;;;;;;;1999.90;999.90;;;20.10;99.90;;;;;;5080355;28;20447;-83
2021/08/19 13:19:55;;;;;;;1999.90;999.90;;;20.30;99.90;;;;;;5078056;28;20735;-83
2021/08/19 13:22:22;;;;;;;1999.90;999.90;;;20.30;99.90;;;;;;5073236;28;20505;-83
2021/08/19 13:24:49;;;;;;;1999.90;999.90;;;20.30;99.90;;;;;;5080412;28;20530;-81
2021/08/19 13:27:19;;;;;;;1999.90;999.90;;;20.30;99.90;;;;;;5078853;28;20558;-83
2021/08/19 13:29:48;;;;;;;1999.90;999.90;;;20.50;99.90;;;;;;5073020;28;20478;-82
2021/08/19 13:32:15;;;;;;;1999.90;999.90;;;20.30;99.90;;;;;;5061071;28;20520;-82
2021/08/19 13:34:44;;;;;;;1999.90;999.90;;;20.30;99.90;;;;;;5060342;28;20884;-81
2021/08/19 13:37:11;;;;;;;1999.90;999.90;;;20.20;99.90;;;;;;5059729;28;20474;-80
2021/08/19 13:39:40;;;;;;;1999.90;999.90;;;20.10;99.90;;;;;;5060718;28;20475;-83
2021/08/19 13:42:07;;;;;;;1999.90;999.90;;;20.20;99.90;;;;;;5070551;28;20455;-80
2021/08/19 13:44:36;;;;;;;1999.90;999.90;;;20.20;99.90;;;;;;5077956;28;20447;-82
2021/08/19 13:47:04;;;;;;;1999.90;999.90;;;20.30;99.90;;;;;;5077914;28;21008;-82
2021/08/19 13:49:31;;;;;;;1999.90;999.90;;;20.40;99.90;;;;;;5074284;28;20855;-81
2021/08/19 13:51:58;;;;;;;1999.90;999.90;;;20.50;99.90;;;;;;5074092;28;20889;-82
2021/08/19 13:54:25;;;;;;;1999.90;999.90;;;20.70;99.90;;;;;;5069345;28;20439;-80
2021/08/19 13:56:53;;;;;;;1999.90;999.90;;;20.70;99.90;;;;;;5062022;28;20487;-80
2021/08/19 13:59:20;;;;;;;1999.90;999.90;;;20.80;99.90;;;;;;5066143;28;20563;-80
2021/08/19 14:01:49;;;;;;;1999.90;999.90;;;21.00;99.90;;;;;;5066780;28;20443;-82